Time;durP1;ratioP1;P1;durP2;ratioP2;P2;SDS_P1;SDS_P2;PMS_P1;PMS_P2;Temp;Humidity;BMP_temperature;BMP_pressure;BME280_temperature;BME280_humidity;BME280_pressure;Samples;Min_cycle;Max_cycle;Signal;HPM_P1;HPM_P2
2021/09/23 00:01:05;;;;;;;15.50;12.98;;;14.00;97.50;;;;;;5013009;28;20034;-58
2021/09/23 00:03:43;;;;;;;15.02;11.95;;;14.00;97.70;;;;;;5012926;28;20304;-60
2021/09/23 00:06:09;;;;;;;14.23;11.88;;;14.00;97.70;;;;;;5010773;28;20453;-57
2021/09/23 00:08:34;;;;;;;15.35;13.57;;;14.00;97.80;;;;;;5013231;28;20057;-57
2021/09/23 00:11:00;;;;;;;18.27;13.13;;;13.90;97.90;;;;;;5010372;28;20077;-55
2021/09/23 00:13:27;;;;;;;16.55;13.32;;;13.90;97.90;;;;;;5012626;28;20041;-55
2021/09/23 00:15:54;;;;;;;15.93;11.98;;;13.90;97.80;;;;;;5013306;28;20079;-60
2021/09/23 00:18:20;;;;;;;14.75;11.70;;;13.90;97.80;;;;;;5010117;28;20022;-57
2021/09/23 00:20:47;;;;;;;15.48;12.82;;;13.80;97.80;;;;;;5013005;28;20022;-57
2021/09/23 00:23:14;;;;;;;18.58;13.95;;;13.80;97.80;;;;;;5012495;28;20041;-56
2021/09/23 00:25:40;;;;;;;15.10;12.73;;;13.80;97.90;;;;;;5009698;28;20425;-57
2021/09/23 00:28:07;;;;;;;17.05;13.65;;;13.70;98.20;;;;;;5012724;28;20109;-55
2021/09/23 00:30:34;;;;;;;18.27;13.90;;;13.70;98.20;;;;;;5012597;28;20041;-55
2021/09/23 00:32:59;;;;;;;13.73;11.70;;;13.70;98.20;;;;;;5012766;28;20552;-56
2021/09/23 00:35:25;;;;;;;18.98;14.60;;;13.60;98.20;;;;;;5012315;28;20105;-58
2021/09/23 00:37:51;;;;;;;16.48;14.70;;;13.60;98.10;;;;;;5012614;28;20053;-58
2021/09/23 00:40:18;;;;;;;17.85;14.02;;;13.60;98.20;;;;;;5012638;28;20033;-60
2021/09/23 00:42:47;;;;;;;17.25;14.65;;;13.60;98.30;;;;;;5012108;28;20037;-56
2021/09/23 00:45:14;;;;;;;17.40;14.43;;;13.60;98.20;;;;;;5012210;28;20042;-59
2021/09/23 00:47:40;;;;;;;20.52;15.02;;;13.60;98.40;;;;;;5009688;28;20378;-58
2021/09/23 00:50:07;;;;;;;18.33;15.00;;;13.60;98.40;;;;;;5036134;28;20044;-58
2021/09/23 00:52:34;;;;;;;18.25;15.15;;;13.60;98.40;;;;;;5011585;28;20038;-58
2021/09/23 00:55:00;;;;;;;18.95;15.48;;;13.70;98.30;;;;;;5009625;28;20438;-56
2021/09/23 00:57:25;;;;;;;18.52;15.18;;;13.60;98.10;;;;;;5011532;28;20113;-56
2021/09/23 00:59:53;;;;;;;18.63;15.95;;;13.60;98.30;;;;;;5011891;28;20470;-59
2021/09/23 01:02:19;;;;;;;17.70;15.88;;;13.50;98.40;;;;;;5011915;28;20041;-52
2021/09/23 01:04:45;;;;;;;19.95;16.27;;;13.50;98.50;;;;;;5036033;28;20033;-60
2021/09/23 01:07:12;;;;;;;18.13;16.15;;;13.60;98.30;;;;;;5011215;28;20445;-57
2021/09/23 01:09:59;;;;;;;21.73;16.42;;;13.50;98.30;;;;;;5011429;28;20037;-58
2021/09/23 01:12:26;;;;;;;21.80;17.48;;;13.40;98.50;;;;;;5008698;28;20126;-58
2021/09/23 01:14:53;;;;;;;21.30;17.55;;;13.40;98.60;;;;;;5011670;28;20045;-59
2021/09/23 01:17:19;;;;;;;24.52;17.20;;;13.30;98.80;;;;;;5012456;28;20485;-57
2021/09/23 01:19:45;;;;;;;20.25;17.80;;;13.30;98.60;;;;;;5013354;28;20105;-56
2021/09/23 01:22:12;;;;;;;21.17;17.88;;;13.30;98.90;;;;;;5017002;28;20030;-59
2021/09/23 01:24:39;;;;;;;25.58;18.17;;;13.10;99.20;;;;;;5024698;28;20124;-56
2021/09/23 01:27:06;;;;;;;21.88;17.05;;;13.00;99.40;;;;;;5032054;28;20064;-57
2021/09/23 01:29:33;;;;;;;23.98;17.25;;;13.00;99.40;;;;;;5032279;28;20034;-57
2021/09/23 01:32:01;;;;;;;19.95;17.52;;;13.10;99.30;;;;;;5032121;28;20033;-58
2021/09/23 01:34:27;;;;;;;21.08;17.30;;;13.00;99.50;;;;;;5031998;28;20033;-58
2021/09/23 01:36:52;;;;;;;22.67;18.02;;;13.00;99.50;;;;;;5017977;28;20089;-57
2021/09/23 01:39:20;;;;;;;22.90;18.67;;;12.80;99.90;;;;;;5012655;28;20030;-59
2021/09/23 01:41:46;;;;;;;25.55;18.70;;;12.80;99.90;;;;;;5012988;28;20032;-57
2021/09/23 01:44:12;;;;;;;23.13;18.40;;;12.90;99.70;;;;;;5013209;28;20038;-54
2021/09/23 01:46:38;;;;;;;22.02;18.45;;;12.90;99.70;;;;;;5013523;28;20041;-55
2021/09/23 01:49:03;;;;;;;21.67;18.45;;;12.90;99.60;;;;;;5013608;28;20075;-55
2021/09/23 01:51:30;;;;;;;21.33;17.33;;;13.00;99.40;;;;;;5013418;28;20517;-53
2021/09/23 01:53:55;;;;;;;23.15;17.83;;;13.00;99.40;;;;;;5012633;28;20045;-56
2021/09/23 01:56:21;;;;;;;21.45;17.73;;;13.00;99.50;;;;;;5013344;28;20042;-54
2021/09/23 01:58:46;;;;;;;21.92;17.40;;;13.10;99.40;;;;;;5011835;28;20452;-55
2021/09/23 02:01:13;;;;;;;20.58;18.30;;;13.10;99.20;;;;;;5012924;28;20045;-55
2021/09/23 02:03:39;;;;;;;23.63;19.15;;;13.10;99.10;;;;;;5012287;28;20053;-56
2021/09/23 02:06:05;;;;;;;22.77;18.15;;;13.10;99.20;;;;;;5015118;28;20109;-58
2021/09/23 02:08:31;;;;;;;26.17;21.13;;;13.10;99.10;;;;;;5014800;28;20080;-59
2021/09/23 02:10:57;;;;;;;27.05;20.38;;;13.10;98.90;;;;;;5016018;28;20378;-57
2021/09/23 02:13:23;;;;;;;22.65;19.88;;;13.00;99.20;;;;;;5016016;28;20057;-57
2021/09/23 02:15:48;;;;;;;25.95;20.20;;;12.90;99.40;;;;;;5015567;28;20042;-56
2021/09/23 02:18:14;;;;;;;25.67;20.02;;;12.90;99.70;;;;;;5016333;28;20045;-56
2021/09/23 02:20:40;;;;;;;24.70;19.60;;;12.90;99.60;;;;;;5015570;28;20018;-56
2021/09/23 02:23:05;;;;;;;25.33;21.27;;;12.80;99.70;;;;;;5013124;28;20392;-59
2021/09/23 02:25:31;;;;;;;23.23;19.58;;;12.80;99.80;;;;;;5015412;28;20076;-55
2021/09/23 02:27:57;;;;;;;27.52;22.25;;;12.80;99.70;;;;;;5016575;28;20135;-56
2021/09/23 02:30:22;;;;;;;25.70;21.48;;;12.80;99.70;;;;;;5016120;28;20539;-58
2021/09/23 02:32:48;;;;;;;28.65;21.08;;;12.80;99.80;;;;;;5015663;28;20044;-60
2021/09/23 02:35:13;;;;;;;24.83;20.20;;;12.80;99.60;;;;;;5015595;28;20490;-55
2021/09/23 02:37:39;;;;;;;26.00;20.23;;;12.80;99.60;;;;;;5016865;28;20033;-56
2021/09/23 02:40:05;;;;;;;24.85;20.50;;;12.80;99.60;;;;;;5018203;28;20066;-55
2021/09/23 02:42:31;;;;;;;24.15;20.00;;;12.80;99.50;;;;;;5015738;28;20060;-54
2021/09/23 02:44:56;;;;;;;21.88;17.40;;;12.90;99.50;;;;;;5015632;28;20458;-54
2021/09/23 02:47:23;;;;;;;19.63;16.20;;;12.80;99.40;;;;;;5016060;28;20041;-58
2021/09/23 02:49:50;;;;;;;20.10;16.90;;;12.80;99.30;;;;;;5015312;28;20498;-54
2021/09/23 02:52:17;;;;;;;19.08;16.02;;;12.80;99.20;;;;;;5015125;28;20034;-55
2021/09/23 02:54:43;;;;;;;23.27;16.30;;;12.80;99.20;;;;;;5015215;28;20448;-60
2021/09/23 02:57:09;;;;;;;18.42;14.52;;;12.70;99.20;;;;;;5015495;28;20026;-58
2021/09/23 02:59:34;;;;;;;17.52;15.45;;;12.80;99.20;;;;;;5016136;28;20456;-57
2021/09/23 03:02:01;;;;;;;21.08;17.23;;;12.70;99.20;;;;;;5015500;28;20045;-60
2021/09/23 03:04:26;;;;;;;23.30;18.75;;;12.70;99.20;;;;;;5015809;28;20038;-57
2021/09/23 03:06:52;;;;;;;21.90;17.50;;;12.70;99.60;;;;;;5014987;28;20041;-55
2021/09/23 03:09:17;;;;;;;24.20;18.50;;;12.70;99.50;;;;;;5015168;28;20148;-54
2021/09/23 03:11:44;;;;;;;23.20;18.10;;;12.60;99.60;;;;;;4997288;28;20033;-56
2021/09/23 03:14:10;;;;;;;27.92;18.02;;;12.50;99.70;;;;;;5013726;28;20034;-57
2021/09/23 03:16:36;;;;;;;21.83;18.05;;;12.60;99.60;;;;;;5014470;28;20030;-57
2021/09/23 03:19:01;;;;;;;19.25;17.20;;;12.60;99.60;;;;;;5014798;28;20042;-53
2021/09/23 03:21:27;;;;;;;24.50;19.45;;;12.50;99.50;;;;;;5013238;28;20034;-55
2021/09/23 03:23:52;;;;;;;25.40;18.58;;;12.50;99.70;;;;;;5014653;28;20053;-56
2021/09/23 03:26:18;;;;;;;28.05;18.98;;;12.40;99.90;;;;;;5014739;28;20049;-54
2021/09/23 03:28:44;;;;;;;19.48;16.33;;;12.50;99.90;;;;;;5014796;28;20120;-55
2021/09/23 03:31:09;;;;;;;18.25;16.27;;;12.40;99.80;;;;;;5014727;28;20037;-54
2021/09/23 03:33:35;;;;;;;19.83;16.02;;;12.50;99.50;;;;;;5014451;28;20034;-59
2021/09/23 03:36:01;;;;;;;20.55;17.35;;;12.50;99.40;;;;;;5014833;28;20125;-56
2021/09/23 03:38:26;;;;;;;20.98;16.02;;;12.40;99.30;;;;;;5013520;28;20132;-55
2021/09/23 03:40:52;;;;;;;19.50;16.23;;;12.40;99.40;;;;;;5014876;28;20038;-55
2021/09/23 03:43:19;;;;;;;16.23;13.68;;;12.30;99.40;;;;;;5014500;28;20037;-57
2021/09/23 03:45:48;;;;;;;16.92;14.60;;;12.20;99.50;;;;;;5014576;28;20553;-55
2021/09/23 03:48:14;;;;;;;16.15;12.98;;;12.20;99.60;;;;;;5014820;28;20033;-57
2021/09/23 03:50:40;;;;;;;16.30;14.52;;;12.20;99.50;;;;;;5014459;28;20505;-57
2021/09/23 03:53:05;;;;;;;19.42;16.17;;;12.30;99.40;;;;;;5014445;28;20068;-59
2021/09/23 03:55:31;;;;;;;16.67;14.75;;;12.20;99.40;;;;;;5015373;28;20038;-56
2021/09/23 03:57:57;;;;;;;18.40;13.63;;;12.20;99.40;;;;;;5015143;28;20037;-55
2021/09/23 04:00:23;;;;;;;15.43;12.98;;;12.20;99.40;;;;;;5014215;28;20042;-54
2021/09/23 04:02:49;;;;;;;15.85;13.43;;;12.20;99.40;;;;;;5014590;28;20034;-53
2021/09/23 04:05:15;;;;;;;17.42;14.55;;;12.10;99.30;;;;;;5014202;28;20037;-52
2021/09/23 04:07:41;;;;;;;23.00;17.30;;;12.20;99.40;;;;;;5014397;28;20045;-54
2021/09/23 04:10:08;;;;;;;28.38;20.05;;;12.10;99.80;;;;;;5014857;28;20061;-55
2021/09/23 04:12:35;;;;;;;23.00;19.17;;;12.20;99.90;;;;;;5014119;28;20038;-57
2021/09/23 04:15:00;;;;;;;23.90;20.08;;;12.10;99.90;;;;;;5013678;28;20037;-56
2021/09/23 04:17:26;;;;;;;24.85;20.88;;;12.20;99.90;;;;;;5013955;28;20038;-59
2021/09/23 04:19:52;;;;;;;27.80;20.13;;;12.10;99.90;;;;;;5014262;28;20125;-57
2021/09/23 04:22:19;;;;;;;24.50;19.38;;;12.20;99.90;;;;;;5012773;28;20029;-55
2021/09/23 04:24:44;;;;;;;24.10;20.25;;;12.10;99.90;;;;;;5012346;28;20052;-59
2021/09/23 04:27:10;;;;;;;26.42;20.67;;;12.00;99.90;;;;;;5012251;28;20050;-56
2021/09/23 04:29:39;;;;;;;26.35;19.58;;;11.90;99.90;;;;;;5012238;28;20771;-56
2021/09/23 04:32:06;;;;;;;24.00;19.92;;;11.80;99.90;;;;;;5012557;28;20048;-57
2021/09/23 04:34:31;;;;;;;28.08;21.40;;;11.70;99.90;;;;;;5013681;28;20037;-55
2021/09/23 04:36:57;;;;;;;29.98;20.95;;;11.60;99.90;;;;;;5013675;28;20397;-56
2021/09/23 04:39:23;;;;;;;23.55;19.88;;;11.60;99.90;;;;;;5013571;28;20088;-58
2021/09/23 04:41:48;;;;;;;24.80;20.10;;;11.60;99.90;;;;;;5013622;28;20069;-59
2021/09/23 04:44:14;;;;;;;23.98;19.75;;;11.50;99.90;;;;;;5011977;28;20030;-60
2021/09/23 04:46:39;;;;;;;23.65;19.60;;;11.60;99.90;;;;;;5013364;28;20120;-58
2021/09/23 04:49:05;;;;;;;30.33;20.27;;;11.60;99.90;;;;;;5013533;28;20048;-61
2021/09/23 04:51:30;;;;;;;29.30;19.65;;;11.70;99.90;;;;;;5012370;28;20042;-58
2021/09/23 04:53:57;;;;;;;26.98;19.48;;;11.70;99.90;;;;;;5013537;28;20470;-55
2021/09/23 04:56:22;;;;;;;24.70;20.42;;;11.70;99.90;;;;;;5013786;28;20117;-57
2021/09/23 04:58:48;;;;;;;26.25;21.05;;;11.70;99.90;;;;;;5013362;28;20065;-56
2021/09/23 05:01:14;;;;;;;23.77;20.02;;;11.70;99.90;;;;;;5013472;28;20132;-58
2021/09/23 05:03:40;;;;;;;24.00;19.52;;;11.80;99.90;;;;;;5013149;28;20105;-55
2021/09/23 05:06:06;;;;;;;23.05;19.30;;;11.80;99.90;;;;;;5013705;28;20034;-57
2021/09/23 05:08:32;;;;;;;25.63;17.70;;;11.80;99.90;;;;;;5013729;28;20482;-59
2021/09/23 05:10:57;;;;;;;22.73;19.63;;;11.90;99.90;;;;;;5014723;28;20076;-59
2021/09/23 05:13:23;;;;;;;26.30;19.05;;;12.00;99.90;;;;;;5017264;28;20050;-56
2021/09/23 05:15:49;;;;;;;30.40;18.98;;;12.00;99.90;;;;;;5013067;28;20065;-55
2021/09/23 05:18:14;;;;;;;25.92;21.10;;;12.10;99.90;;;;;;5012991;28;20111;-57
2021/09/23 05:20:40;;;;;;;28.00;21.83;;;12.10;99.90;;;;;;5013605;28;20375;-60
2021/09/23 05:23:06;;;;;;;30.42;19.35;;;12.20;99.90;;;;;;5012491;28;20073;-58
2021/09/23 05:25:33;;;;;;;31.05;20.13;;;12.20;99.90;;;;;;5013471;28;20048;-56
2021/09/23 05:27:58;;;;;;;40.42;20.08;;;12.10;99.90;;;;;;5013086;28;20038;-53
2021/09/23 05:30:24;;;;;;;32.83;19.73;;;12.10;99.90;;;;;;5013401;28;20041;-56
2021/09/23 05:32:50;;;;;;;28.20;19.67;;;12.20;99.90;;;;;;5013033;28;20030;-52
2021/09/23 05:35:16;;;;;;;29.52;19.55;;;12.20;99.90;;;;;;5011290;28;20114;-54
2021/09/23 05:37:45;;;;;;;29.40;20.80;;;12.10;99.90;;;;;;5012765;28;20042;-58
2021/09/23 05:40:10;;;;;;;31.80;20.55;;;12.10;99.90;;;;;;5015979;28;20030;-58
2021/09/23 05:42:37;;;;;;;27.73;19.88;;;12.10;99.90;;;;;;5016700;28;20034;-58
2021/09/23 05:45:07;;;;;;;32.33;20.35;;;12.10;99.90;;;;;;5016941;28;20030;-61
2021/09/23 05:47:33;;;;;;;32.45;21.73;;;12.00;99.90;;;;;;5016919;28;20080;-58
2021/09/23 05:49:59;;;;;;;30.77;22.27;;;11.90;99.90;;;;;;5016061;28;20046;-55
2021/09/23 05:52:25;;;;;;;35.33;22.92;;;11.90;99.90;;;;;;5017223;28;20040;-57
2021/09/23 05:54:50;;;;;;;37.92;20.80;;;12.00;99.90;;;;;;5015670;28;20107;-60
2021/09/23 05:57:22;;;;;;;32.42;21.60;;;12.00;99.90;;;;;;5017271;28;20370;-58
2021/09/23 05:59:48;;;;;;;27.80;21.42;;;12.00;99.90;;;;;;5016518;28;20033;-54
2021/09/23 06:02:14;;;;;;;28.88;21.92;;;12.10;99.90;;;;;;5015168;28;20485;-58
2021/09/23 06:04:40;;;;;;;28.95;22.55;;;12.10;99.90;;;;;;5028962;28;20046;-56
2021/09/23 06:07:06;;;;;;;32.90;20.83;;;12.00;99.90;;;;;;5036595;28;20037;-57
2021/09/23 06:09:31;;;;;;;32.45;21.30;;;12.10;99.90;;;;;;5033918;28;20061;-53
2021/09/23 06:11:57;;;;;;;34.90;21.67;;;12.10;99.90;;;;;;5034874;28;20041;-58
2021/09/23 06:14:22;;;;;;;30.15;20.98;;;12.20;99.90;;;;;;5035867;28;20098;-54
2021/09/23 06:16:48;;;;;;;35.05;23.42;;;12.30;99.90;;;;;;5036623;28;20026;-58
2021/09/23 06:19:14;;;;;;;33.78;21.08;;;12.30;99.90;;;;;;5034491;28;20120;-60
2021/09/23 06:21:40;;;;;;;27.58;21.77;;;12.50;99.90;;;;;;5019451;28;20110;-60
2021/09/23 06:24:07;;;;;;;28.60;19.95;;;12.70;99.90;;;;;;4998336;28;20512;-56
2021/09/23 06:26:33;;;;;;;29.20;21.02;;;12.70;99.90;;;;;;5016721;28;20035;-58
2021/09/23 06:28:59;;;;;;;24.48;20.13;;;12.70;99.90;;;;;;5037778;28;20041;-57
2021/09/23 06:31:24;;;;;;;33.60;21.05;;;12.80;99.90;;;;;;5014528;28;20107;-57
2021/09/23 06:33:50;;;;;;;28.08;21.67;;;12.90;99.90;;;;;;5036248;28;20044;-58
2021/09/23 06:36:16;;;;;;;33.20;21.83;;;12.90;99.90;;;;;;5027384;28;20098;-58
2021/09/23 06:38:41;;;;;;;33.67;20.50;;;13.00;99.90;;;;;;4998938;28;20037;-55
2021/09/23 06:41:12;;;;;;;29.30;21.17;;;13.00;99.90;;;;;;5016585;28;20121;-52
2021/09/23 06:43:38;;;;;;;26.77;20.45;;;13.10;99.90;;;;;;5015501;28;20038;-55
2021/09/23 06:46:04;;;;;;;35.45;22.13;;;13.10;99.90;;;;;;5021118;28;20128;-59
2021/09/23 06:48:29;;;;;;;30.42;19.77;;;13.20;99.90;;;;;;5034920;28;20069;-55
2021/09/23 06:50:55;;;;;;;25.50;20.00;;;13.20;99.90;;;;;;5034792;28;20068;-53
2021/09/23 06:53:21;;;;;;;26.73;20.52;;;13.20;99.90;;;;;;5036006;28;20037;-57
2021/09/23 06:55:49;;;;;;;24.40;20.17;;;13.30;99.90;;;;;;5034997;28;20041;-58
2021/09/23 06:58:14;;;;;;;26.27;20.58;;;13.40;99.90;;;;;;5002312;28;20030;-54
2021/09/23 07:00:40;;;;;;;30.90;20.13;;;13.50;99.90;;;;;;4996432;28;20042;-60
2021/09/23 07:03:06;;;;;;;24.13;19.35;;;13.60;99.90;;;;;;4996113;28;20027;-60
2021/09/23 07:05:31;;;;;;;30.25;18.80;;;13.60;99.90;;;;;;4996551;28;20038;-55
2021/09/23 07:07:57;;;;;;;24.65;19.10;;;13.70;99.90;;;;;;4996348;28;20045;-54
2021/09/23 07:10:23;;;;;;;22.30;19.05;;;13.80;99.80;;;;;;4996113;28;20046;-57
2021/09/23 07:12:48;;;;;;;26.17;19.13;;;13.90;99.40;;;;;;4994643;28;20042;-54
2021/09/23 07:15:14;;;;;;;28.98;18.65;;;14.00;99.40;;;;;;4995345;28;20066;-53
2021/09/23 07:17:39;;;;;;;28.80;20.30;;;14.00;99.50;;;;;;4995758;28;20030;-56
2021/09/23 07:20:06;;;;;;;26.33;20.58;;;14.10;99.20;;;;;;4995859;28;20462;-56
2021/09/23 07:22:32;;;;;;;27.73;20.10;;;14.20;99.10;;;;;;5016530;28;20401;-56
2021/09/23 07:24:58;;;;;;;23.20;19.85;;;14.20;99.30;;;;;;5034130;28;20029;-58
2021/09/23 07:27:24;;;;;;;23.75;20.17;;;14.10;99.30;;;;;;5043652;28;20036;-62
2021/09/23 07:29:50;;;;;;;25.25;19.63;;;14.20;99.20;;;;;;5048659;28;20092;-60
2021/09/23 07:32:17;;;;;;;21.83;18.35;;;14.30;99.10;;;;;;5053023;28;20042;-57
2021/09/23 07:34:43;;;;;;;26.48;20.05;;;14.40;98.90;;;;;;5034554;28;20083;-58
2021/09/23 07:37:09;;;;;;;26.83;19.48;;;14.50;98.90;;;;;;5019199;28;20029;-57
2021/09/23 07:39:35;;;;;;;24.02;19.52;;;14.50;98.90;;;;;;5015625;28;20057;-57
2021/09/23 07:42:01;;;;;;;22.88;18.55;;;14.70;98.80;;;;;;5015315;28;20076;-55
2021/09/23 07:44:27;;;;;;;28.92;20.60;;;14.80;98.50;;;;;;5016140;28;20050;-59
2021/09/23 07:46:55;;;;;;;21.67;18.55;;;14.90;98.60;;;;;;5017031;28;20533;-60
2021/09/23 07:49:21;;;;;;;23.45;18.42;;;14.90;98.20;;;;;;5015679;28;20018;-59
2021/09/23 07:51:47;;;;;;;22.38;18.52;;;15.00;98.20;;;;;;5015280;28;20033;-61
2021/09/23 07:54:13;;;;;;;21.15;17.40;;;15.00;98.30;;;;;;5015313;28;20382;-57
2021/09/23 07:56:39;;;;;;;20.95;16.92;;;15.10;98.20;;;;;;5015493;28;20041;-59
2021/09/23 07:59:04;;;;;;;24.70;17.17;;;15.20;97.70;;;;;;5028904;28;20046;-59
2021/09/23 08:01:30;;;;;;;23.20;17.55;;;15.30;97.80;;;;;;5033447;28;20037;-59
2021/09/23 08:03:56;;;;;;;17.98;15.95;;;15.40;97.70;;;;;;5034553;28;20030;-60
2021/09/23 08:06:22;;;;;;;20.95;16.73;;;15.50;97.30;;;;;;5033681;28;20044;-59
2021/09/23 08:08:49;;;;;;;21.65;16.08;;;15.50;97.40;;;;;;5035307;28;20040;-58
2021/09/23 08:11:15;;;;;;;21.35;16.92;;;15.60;97.20;;;;;;5035084;28;20156;-60
2021/09/23 08:13:40;;;;;;;19.95;16.52;;;15.60;97.40;;;;;;5016660;28;20593;-61
2021/09/23 08:16:06;;;;;;;22.05;16.23;;;15.60;97.00;;;;;;5034396;28;20060;-60
2021/09/23 08:18:32;;;;;;;17.95;15.82;;;15.50;97.20;;;;;;5034665;28;20401;-59
2021/09/23 08:20:57;;;;;;;23.50;15.60;;;15.50;97.10;;;;;;5023661;28;20152;-60
2021/09/23 08:23:23;;;;;;;18.83;15.35;;;15.70;97.20;;;;;;5013129;28;20037;-59
2021/09/23 08:25:51;;;;;;;17.17;15.15;;;15.90;97.10;;;;;;5014203;28;20172;-60
2021/09/23 08:28:17;;;;;;;19.23;14.98;;;16.00;96.90;;;;;;5015015;28;20032;-61
2021/09/23 08:30:44;;;;;;;17.30;13.50;;;16.00;96.50;;;;;;5013667;28;20434;-59
2021/09/23 08:33:10;;;;;;;17.08;12.90;;;16.20;96.00;;;;;;5016831;28;20041;-59
2021/09/23 08:35:36;;;;;;;25.88;14.18;;;16.10;95.60;;;;;;5029551;28;20084;-60
2021/09/23 08:38:02;;;;;;;18.70;12.50;;;16.00;95.70;;;;;;5013787;28;20068;-60
2021/09/23 08:40:27;;;;;;;13.95;12.45;;;15.90;95.50;;;;;;5013755;28;20037;-59
2021/09/23 08:42:53;;;;;;;14.45;12.25;;;16.10;95.30;;;;;;5013901;28;20117;-58
2021/09/23 08:45:20;;;;;;;15.90;12.55;;;16.10;95.10;;;;;;5014191;28;20521;-60
2021/09/23 08:47:46;;;;;;;16.60;13.75;;;16.20;95.20;;;;;;5021357;28;20044;-58
2021/09/23 08:50:14;;;;;;;15.68;13.13;;;16.20;94.80;;;;;;5033642;28;20045;-59
2021/09/23 08:52:41;;;;;;;17.02;13.13;;;16.10;95.00;;;;;;5033698;28;20021;-60
2021/09/23 08:55:07;;;;;;;16.65;13.35;;;16.20;95.20;;;;;;5033320;28;20069;-58
2021/09/23 08:57:33;;;;;;;15.32;12.27;;;16.30;94.70;;;;;;5026653;28;20025;-59
2021/09/23 09:00:07;;;;;;;14.98;12.07;;;16.40;94.70;;;;;;5014730;28;20025;-59
2021/09/23 09:02:32;;;;;;;15.27;11.88;;;16.40;94.60;;;;;;5012644;28;20050;-59
2021/09/23 09:04:59;;;;;;;15.40;12.20;;;16.70;94.70;;;;;;5013930;28;20037;-58
2021/09/23 09:07:28;;;;;;;15.52;12.02;;;16.80;94.60;;;;;;5013353;28;20033;-60
2021/09/23 09:10:08;;;;;;;14.60;11.15;;;16.90;94.60;;;;;;5013334;28;20029;-58
2021/09/23 09:12:35;;;;;;;12.93;11.52;;;17.10;94.00;;;;;;5019695;28;20081;-60
2021/09/23 09:15:01;;;;;;;13.60;11.38;;;17.20;93.80;;;;;;5003333;28;20493;-60
2021/09/23 09:17:35;;;;;;;16.48;10.65;;;17.20;93.90;;;;;;5013052;28;20034;-61
2021/09/23 09:20:04;;;;;;;12.02;10.02;;;17.30;93.40;;;;;;5013085;28;20018;-59
2021/09/23 09:22:33;;;;;;;19.13;9.98;;;17.30;93.10;;;;;;5013068;28;20371;-59
2021/09/23 09:25:02;;;;;;;13.40;9.95;;;17.20;93.50;;;;;;5021650;28;20129;-60
2021/09/23 09:27:37;;;;;;;15.63;9.27;;;17.20;92.70;;;;;;5018118;28;20121;-59
2021/09/23 09:30:06;;;;;;;11.98;8.82;;;17.30;92.60;;;;;;5027592;28;20436;-60
2021/09/23 09:32:42;;;;;;;14.18;8.90;;;17.30;92.70;;;;;;5030500;28;20428;-59
2021/09/23 09:35:19;;;;;;;12.57;8.70;;;17.30;92.50;;;;;;5021817;28;20045;-57
2021/09/23 09:37:49;;;;;;;11.98;9.02;;;17.50;92.50;;;;;;5012727;28;20030;-59
2021/09/23 09:40:21;;;;;;;16.85;9.25;;;17.60;92.60;;;;;;5009809;28;20481;-60
2021/09/23 09:42:49;;;;;;;11.52;7.80;;;17.70;92.00;;;;;;5012875;28;20057;-58
2021/09/23 09:45:17;;;;;;;11.98;8.93;;;17.80;91.90;;;;;;5013179;28;20050;-60
2021/09/23 09:47:43;;;;;;;13.48;8.77;;;17.90;91.30;;;;;;5012916;28;20521;-60
2021/09/23 09:50:15;;;;;;;14.57;8.30;;;17.90;91.50;;;;;;5011623;28;20389;-60
2021/09/23 09:52:48;;;;;;;16.10;8.65;;;18.00;91.30;;;;;;5012719;28;20109;-61
2021/09/23 09:55:13;;;;;;;12.70;8.07;;;18.20;91.20;;;;;;5012494;28;20061;-60
2021/09/23 09:57:47;;;;;;;14.20;7.68;;;18.20;91.00;;;;;;5008021;28;20034;-58
2021/09/23 10:00:14;;;;;;;14.10;7.88;;;18.20;91.10;;;;;;5010951;28;20030;-57
2021/09/23 10:02:42;;;;;;;11.63;8.05;;;18.10;91.10;;;;;;5010804;28;20042;-58
2021/09/23 10:05:08;;;;;;;11.75;7.80;;;18.30;91.00;;;;;;5011911;28;20503;-56
2021/09/23 10:07:35;;;;;;;10.68;8.30;;;18.40;91.00;;;;;;5013067;28;20061;-56
2021/09/23 10:10:01;;;;;;;7.75;6.30;;;18.40;91.00;;;;;;5013170;28;20045;-58
2021/09/23 10:12:30;;;;;;;9.57;5.82;;;18.50;90.80;;;;;;5012436;28;20493;-58
2021/09/23 10:14:56;;;;;;;7.95;5.40;;;18.60;90.30;;;;;;5012690;28;20045;-59
2021/09/23 10:17:22;;;;;;;11.07;5.75;;;18.70;89.00;;;;;;5014017;28;20034;-57
2021/09/23 10:19:48;;;;;;;10.30;5.13;;;18.90;87.90;;;;;;5014241;28;20064;-57
2021/09/23 10:22:14;;;;;;;10.82;4.82;;;18.80;86.30;;;;;;5018654;28;20033;-60
2021/09/23 10:24:43;;;;;;;8.18;4.95;;;18.90;86.10;;;;;;5032969;28;20112;-60
2021/09/23 10:29:55;;;;;;;8.68;4.43;;;19.10;85.40;;;;;;5033289;28;20041;-58
2021/09/23 10:32:22;;;;;;;8.88;5.20;;;19.40;84.90;;;;;;5034479;28;20474;-56
2021/09/23 10:34:51;;;;;;;6.30;4.82;;;19.30;83.30;;;;;;5035576;28;20413;-60
2021/09/23 10:37:18;;;;;;;10.35;5.22;;;19.30;84.30;;;;;;5018474;28;20034;-54
2021/09/23 10:39:45;;;;;;;7.82;5.00;;;19.40;83.80;;;;;;5015195;28;20532;-55
2021/09/23 10:42:20;;;;;;;11.55;5.03;;;19.40;84.00;;;;;;5015969;28;20033;-54
2021/09/23 10:44:48;;;;;;;11.25;4.82;;;19.40;83.70;;;;;;5023419;28;20423;-60
2021/09/23 10:47:32;;;;;;;8.43;4.50;;;19.40;82.70;;;;;;5014028;28;20473;-59
2021/09/23 10:49:59;;;;;;;8.43;4.73;;;19.50;82.00;;;;;;5015580;28;20046;-60
2021/09/23 10:52:31;;;;;;;6.85;4.45;;;19.40;81.50;;;;;;5015379;28;20273;-58
2021/09/23 10:55:02;;;;;;;5.65;3.80;;;19.50;82.10;;;;;;5016122;28;20395;-59
2021/09/23 10:57:29;;;;;;;12.98;4.43;;;19.60;82.10;;;;;;5015178;28;20026;-61
2021/09/23 10:59:56;;;;;;;8.27;4.40;;;19.60;82.00;;;;;;5015781;28;20065;-59
2021/09/23 11:02:24;;;;;;;5.70;4.15;;;19.70;82.00;;;;;;5015279;28;20118;-60
2021/09/23 11:04:55;;;;;;;11.95;4.50;;;19.80;82.70;;;;;;5028215;28;20036;-61
2021/09/23 11:07:23;;;;;;;12.48;4.32;;;19.90;80.70;;;;;;5027363;28;20034;-59
2021/09/23 11:10:05;;;;;;;6.63;4.25;;;19.80;81.00;;;;;;5015964;28;20053;-60
2021/09/23 11:12:32;;;;;;;12.18;4.72;;;19.70;81.10;;;;;;5015325;28;20084;-61
2021/09/23 11:14:58;;;;;;;8.52;4.85;;;19.80;81.00;;;;;;5015248;28;20045;-60
2021/09/23 11:17:26;;;;;;;6.30;3.97;;;19.70;81.10;;;;;;5015195;28;20038;-61
2021/09/23 11:20:06;;;;;;;5.63;4.38;;;19.90;79.90;;;;;;5015328;28;20030;-60
2021/09/23 11:22:39;;;;;;;9.45;4.32;;;19.90;80.30;;;;;;5015224;28;20029;-62
2021/09/23 11:25:09;;;;;;;7.22;4.60;;;19.90;79.40;;;;;;5014344;28;20030;-60
2021/09/23 11:27:36;;;;;;;12.05;4.18;;;20.00;79.20;;;;;;5014398;28;20034;-61
2021/09/23 11:30:04;;;;;;;12.35;4.78;;;20.10;78.70;;;;;;5015817;28;20045;-61
2021/09/23 11:32:30;;;;;;;7.78;3.95;;;20.10;78.50;;;;;;5015467;28;20030;-61
2021/09/23 11:35:02;;;;;;;9.02;4.53;;;20.20;78.70;;;;;;5017025;28;20490;-59
2021/09/23 11:37:33;;;;;;;12.02;4.13;;;20.20;77.90;;;;;;5015293;28;20765;-61
2021/09/23 11:40:00;;;;;;;8.77;4.30;;;20.20;77.90;;;;;;5014657;28;20504;-61
2021/09/23 11:42:39;;;;;;;6.30;4.40;;;20.40;78.50;;;;;;5013597;28;20034;-60
2021/09/23 11:45:12;;;;;;;7.30;4.40;;;20.70;78.10;;;;;;5014855;28;20505;-59
2021/09/23 11:47:48;;;;;;;15.40;5.57;;;20.60;77.70;;;;;;5014319;28;20048;-58
2021/09/23 11:50:27;;;;;;;7.45;4.10;;;20.60;76.50;;;;;;5013928;28;20029;-61
2021/09/23 11:53:02;;;;;;;7.25;3.90;;;20.70;76.80;;;;;;5014149;28;20069;-60
2021/09/23 11:55:28;;;;;;;8.70;4.75;;;20.70;77.00;;;;;;5014085;28;20042;-60
2021/09/23 11:58:07;;;;;;;6.57;4.28;;;20.80;76.50;;;;;;5014844;28;20116;-59
2021/09/23 12:00:41;;;;;;;16.17;4.85;;;20.80;76.60;;;;;;5014341;28;20037;-61
2021/09/23 12:03:08;;;;;;;;;;;20.90;75.70;;;;;;5014941;28;20038;-60
2021/09/23 12:05:33;;;;;;;6.28;4.57;;;21.00;75.90;;;;;;5014521;28;19914;-60
2021/09/23 12:08:08;;;;;;;8.20;4.22;;;20.90;75.50;;;;;;5014484;28;20169;-59
2021/09/23 12:10:45;;;;;;;9.20;4.15;;;21.10;75.70;;;;;;5014474;28;20034;-60
2021/09/23 12:13:17;;;;;;;10.40;4.30;;;21.30;76.10;;;;;;5014126;28;20038;-60
2021/09/23 12:15:49;;;;;;;10.13;4.22;;;21.40;76.00;;;;;;5014325;28;20437;-59
2021/09/23 12:18:15;;;;;;;6.25;3.92;;;21.50;74.40;;;;;;5014693;28;20030;-58
2021/09/23 12:20:47;;;;;;;7.95;4.68;;;21.30;74.70;;;;;;5015156;28;20497;-58
2021/09/23 12:23:23;;;;;;;6.47;4.47;;;21.30;74.90;;;;;;5014812;28;20084;-60
2021/09/23 12:26:08;;;;;;;9.70;4.60;;;21.20;74.70;;;;;;5013172;28;20036;-61
2021/09/23 12:28:38;;;;;;;7.50;3.95;;;21.10;74.90;;;;;;5013971;28;20030;-60
2021/09/23 12:31:05;;;;;;;4.78;4.28;;;21.00;75.30;;;;;;5014043;28;20113;-60
2021/09/23 12:33:32;;;;;;;7.30;4.40;;;21.00;75.10;;;;;;5014595;28;20038;-59